sensor_id;sensor_type;location;lat;lon;timestamp;P1;durP1;ratioP1;P2;durP2;ratioP2
51248;SDS011;39642;47.556;18.728;2022-10-16T00:01:29;12.18;;;4.82;;
51248;SDS011;39642;47.556;18.728;2022-10-16T00:03:57;11.85;;;5.10;;
51248;SDS011;39642;47.556;18.728;2022-10-16T00:06:24;12.75;;;5.40;;
51248;SDS011;39642;47.556;18.728;2022-10-16T00:08:51;11.38;;;5.15;;
51248;SDS011;39642;47.556;18.728;2022-10-16T00:11:19;12.88;;;5.50;;
51248;SDS011;39642;47.556;18.728;2022-10-16T00:13:50;11.60;;;5.30;;
51248;SDS011;39642;47.556;18.728;2022-10-16T00:16:17;12.30;;;5.28;;
51248;SDS011;39642;47.556;18.728;2022-10-16T00:18:44;10.93;;;4.90;;
51248;SDS011;39642;47.556;18.728;2022-10-16T00:21:11;12.07;;;5.28;;
51248;SDS011;39642;47.556;18.728;2022-10-16T00:23:39;11.77;;;5.40;;
51248;SDS011;39642;47.556;18.728;2022-10-16T00:26:10;12.73;;;5.20;;
51248;SDS011;39642;47.556;18.728;2022-10-16T00:28:40;11.88;;;5.35;;
51248;SDS011;39642;47.556;18.728;2022-10-16T00:31:07;12.25;;;4.87;;
51248;SDS011;39642;47.556;18.728;2022-10-16T00:33:36;11.75;;;5.18;;
51248;SDS011;39642;47.556;18.728;2022-10-16T00:36:03;11.25;;;4.85;;
51248;SDS011;39642;47.556;18.728;2022-10-16T00:38:30;12.70;;;5.43;;
51248;SDS011;39642;47.556;18.728;2022-10-16T00:40:56;11.77;;;5.25;;
51248;SDS011;39642;47.556;18.728;2022-10-16T00:43:33;12.05;;;5.03;;
51248;SDS011;39642;47.556;18.728;2022-10-16T00:46:25;11.75;;;5.00;;
51248;SDS011;39642;47.556;18.728;2022-10-16T00:48:59;12.20;;;5.57;;
51248;SDS011;39642;47.556;18.728;2022-10-16T00:51:36;11.95;;;5.37;;
51248;SDS011;39642;47.556;18.728;2022-10-16T00:54:07;11.80;;;5.35;;
51248;SDS011;39642;47.556;18.728;2022-10-16T00:56:37;13.05;;;5.43;;
51248;SDS011;39642;47.556;18.728;2022-10-16T00:59:03;11.25;;;5.28;;
51248;SDS011;39642;47.556;18.728;2022-10-16T01:01:34;11.48;;;4.47;;
51248;SDS011;39642;47.556;18.728;2022-10-16T01:04:00;12.18;;;5.22;;
51248;SDS011;39642;47.556;18.728;2022-10-16T01:06:34;12.10;;;4.87;;
51248;SDS011;39642;47.556;18.728;2022-10-16T01:09:20;10.63;;;4.70;;
51248;SDS011;39642;47.556;18.728;2022-10-16T01:18:18;11.73;;;5.43;;
51248;SDS011;39642;47.556;18.728;2022-10-16T01:20:51;11.85;;;4.90;;
51248;SDS011;39642;47.556;18.728;2022-10-16T01:26:05;12.30;;;5.20;;
51248;SDS011;39642;47.556;18.728;2022-10-16T01:28:41;11.77;;;4.68;;
51248;SDS011;39642;47.556;18.728;2022-10-16T01:31:22;11.18;;;4.90;;
51248;SDS011;39642;47.556;18.728;2022-10-16T01:33:55;10.48;;;4.57;;
51248;SDS011;39642;47.556;18.728;2022-10-16T01:36:27;11.32;;;4.80;;
51248;SDS011;39642;47.556;18.728;2022-10-16T01:39:01;11.27;;;4.93;;
51248;SDS011;39642;47.556;18.728;2022-10-16T01:41:36;10.48;;;4.82;;
51248;SDS011;39642;47.556;18.728;2022-10-16T01:44:17;12.05;;;5.22;;
51248;SDS011;39642;47.556;18.728;2022-10-16T01:46:48;11.10;;;4.90;;
51248;SDS011;39642;47.556;18.728;2022-10-16T01:49:17;11.43;;;4.93;;
51248;SDS011;39642;47.556;18.728;2022-10-16T01:51:44;11.20;;;4.82;;
51248;SDS011;39642;47.556;18.728;2022-10-16T01:54:13;11.27;;;4.70;;
51248;SDS011;39642;47.556;18.728;2022-10-16T01:56:43;13.77;;;5.25;;
51248;SDS011;39642;47.556;18.728;2022-10-16T01:59:11;12.30;;;4.78;;
51248;SDS011;39642;47.556;18.728;2022-10-16T02:01:50;11.75;;;5.05;;
51248;SDS011;39642;47.556;18.728;2022-10-16T02:04:23;10.82;;;4.80;;
51248;SDS011;39642;47.556;18.728;2022-10-16T02:06:53;11.55;;;4.80;;
51248;SDS011;39642;47.556;18.728;2022-10-16T02:09:20;10.68;;;4.68;;
51248;SDS011;39642;47.556;18.728;2022-10-16T02:11:46;10.85;;;4.97;;
51248;SDS011;39642;47.556;18.728;2022-10-16T02:14:14;11.75;;;4.65;;
51248;SDS011;39642;47.556;18.728;2022-10-16T02:16:42;12.02;;;4.85;;
51248;SDS011;39642;47.556;18.728;2022-10-16T02:19:09;11.35;;;4.80;;
51248;SDS011;39642;47.556;18.728;2022-10-16T02:21:40;12.25;;;4.85;;
51248;SDS011;39642;47.556;18.728;2022-10-16T02:26:43;11.77;;;5.10;;
51248;SDS011;39642;47.556;18.728;2022-10-16T02:29:16;11.60;;;5.03;;
51248;SDS011;39642;47.556;18.728;2022-10-16T02:31:48;10.82;;;4.68;;
51248;SDS011;39642;47.556;18.728;2022-10-16T02:34:18;10.85;;;4.80;;
51248;SDS011;39642;47.556;18.728;2022-10-16T02:36:46;11.50;;;4.65;;
51248;SDS011;39642;47.556;18.728;2022-10-16T02:39:14;10.60;;;4.50;;
51248;SDS011;39642;47.556;18.728;2022-10-16T02:41:41;11.32;;;4.68;;
51248;SDS011;39642;47.556;18.728;2022-10-16T02:44:08;11.80;;;5.00;;
51248;SDS011;39642;47.556;18.728;2022-10-16T02:46:34;10.82;;;4.87;;
51248;SDS011;39642;47.556;18.728;2022-10-16T02:48:59;12.48;;;4.90;;
51248;SDS011;39642;47.556;18.728;2022-10-16T02:51:26;10.85;;;4.50;;
51248;SDS011;39642;47.556;18.728;2022-10-16T02:53:52;11.12;;;4.85;;
51248;SDS011;39642;47.556;18.728;2022-10-16T02:56:18;12.68;;;5.00;;
51248;SDS011;39642;47.556;18.728;2022-10-16T02:58:44;12.70;;;4.78;;
51248;SDS011;39642;47.556;18.728;2022-10-16T03:01:10;11.02;;;4.35;;
51248;SDS011;39642;47.556;18.728;2022-10-16T03:03:38;10.75;;;4.40;;
51248;SDS011;39642;47.556;18.728;2022-10-16T03:06:04;11.95;;;4.65;;
51248;SDS011;39642;47.556;18.728;2022-10-16T03:08:31;11.15;;;4.70;;
51248;SDS011;39642;47.556;18.728;2022-10-16T03:10:57;12.27;;;5.10;;
51248;SDS011;39642;47.556;18.728;2022-10-16T03:13:22;10.60;;;4.37;;
51248;SDS011;39642;47.556;18.728;2022-10-16T03:15:48;12.98;;;4.75;;
51248;SDS011;39642;47.556;18.728;2022-10-16T03:18:14;11.32;;;4.78;;
51248;SDS011;39642;47.556;18.728;2022-10-16T03:20:41;11.88;;;4.75;;
51248;SDS011;39642;47.556;18.728;2022-10-16T03:23:08;10.88;;;4.55;;
51248;SDS011;39642;47.556;18.728;2022-10-16T03:25:34;11.40;;;4.70;;
51248;SDS011;39642;47.556;18.728;2022-10-16T03:28:00;11.65;;;4.80;;
51248;SDS011;39642;47.556;18.728;2022-10-16T03:30:26;11.55;;;4.47;;
51248;SDS011;39642;47.556;18.728;2022-10-16T03:32:52;11.23;;;4.72;;
51248;SDS011;39642;47.556;18.728;2022-10-16T03:35:21;12.43;;;4.90;;
51248;SDS011;39642;47.556;18.728;2022-10-16T03:37:48;11.95;;;4.53;;
51248;SDS011;39642;47.556;18.728;2022-10-16T03:40:14;11.30;;;4.40;;
51248;SDS011;39642;47.556;18.728;2022-10-16T03:42:42;11.35;;;4.47;;
51248;SDS011;39642;47.556;18.728;2022-10-16T03:45:08;11.32;;;4.37;;
51248;SDS011;39642;47.556;18.728;2022-10-16T03:47:35;10.88;;;4.32;;
51248;SDS011;39642;47.556;18.728;2022-10-16T03:50:01;10.65;;;4.50;;
51248;SDS011;39642;47.556;18.728;2022-10-16T03:52:27;10.82;;;4.18;;
51248;SDS011;39642;47.556;18.728;2022-10-16T03:54:53;11.25;;;4.80;;
51248;SDS011;39642;47.556;18.728;2022-10-16T03:57:18;13.02;;;4.37;;
51248;SDS011;39642;47.556;18.728;2022-10-16T03:59:46;11.23;;;4.32;;
51248;SDS011;39642;47.556;18.728;2022-10-16T04:02:12;11.77;;;4.40;;
51248;SDS011;39642;47.556;18.728;2022-10-16T04:04:38;11.73;;;4.28;;
51248;SDS011;39642;47.556;18.728;2022-10-16T04:07:04;10.73;;;4.10;;
51248;SDS011;39642;47.556;18.728;2022-10-16T04:09:30;10.82;;;4.32;;
51248;SDS011;39642;47.556;18.728;2022-10-16T04:11:56;10.75;;;4.37;;
51248;SDS011;39642;47.556;18.728;2022-10-16T04:14:22;9.93;;;4.10;;
51248;SDS011;39642;47.556;18.728;2022-10-16T04:16:48;11.23;;;4.00;;
51248;SDS011;39642;47.556;18.728;2022-10-16T04:19:13;10.13;;;3.92;;
51248;SDS011;39642;47.556;18.728;2022-10-16T04:21:39;10.07;;;3.95;;
51248;SDS011;39642;47.556;18.728;2022-10-16T04:24:05;10.85;;;3.90;;
51248;SDS011;39642;47.556;18.728;2022-10-16T04:26:31;10.48;;;4.20;;
51248;SDS011;39642;47.556;18.728;2022-10-16T04:28:57;10.30;;;4.30;;
51248;SDS011;39642;47.556;18.728;2022-10-16T04:31:23;10.35;;;4.07;;
51248;SDS011;39642;47.556;18.728;2022-10-16T04:33:49;10.10;;;3.95;;
51248;SDS011;39642;47.556;18.728;2022-10-16T04:36:14;10.90;;;4.20;;
51248;SDS011;39642;47.556;18.728;2022-10-16T04:38:40;10.40;;;3.97;;
51248;SDS011;39642;47.556;18.728;2022-10-16T04:41:06;10.55;;;4.32;;
51248;SDS011;39642;47.556;18.728;2022-10-16T04:43:32;10.30;;;3.67;;
51248;SDS011;39642;47.556;18.728;2022-10-16T04:45:59;10.75;;;4.07;;
51248;SDS011;39642;47.556;18.728;2022-10-16T04:48:26;10.38;;;3.95;;
51248;SDS011;39642;47.556;18.728;2022-10-16T04:50:51;10.23;;;4.12;;
51248;SDS011;39642;47.556;18.728;2022-10-16T04:53:17;10.52;;;3.90;;
51248;SDS011;39642;47.556;18.728;2022-10-16T04:55:43;10.68;;;4.12;;
51248;SDS011;39642;47.556;18.728;2022-10-16T04:58:09;11.75;;;4.28;;
51248;SDS011;39642;47.556;18.728;2022-10-16T05:00:35;9.65;;;3.53;;
51248;SDS011;39642;47.556;18.728;2022-10-16T05:03:02;9.98;;;3.72;;
51248;SDS011;39642;47.556;18.728;2022-10-16T05:05:31;10.65;;;4.05;;
51248;SDS011;39642;47.556;18.728;2022-10-16T05:07:57;9.90;;;3.80;;
51248;SDS011;39642;47.556;18.728;2022-10-16T05:10:23;11.55;;;4.00;;
51248;SDS011;39642;47.556;18.728;2022-10-16T05:12:48;10.48;;;3.80;;
51248;SDS011;39642;47.556;18.728;2022-10-16T05:15:15;10.50;;;3.90;;
51248;SDS011;39642;47.556;18.728;2022-10-16T05:17:41;10.40;;;4.07;;
51248;SDS011;39642;47.556;18.728;2022-10-16T05:20:07;10.48;;;4.20;;
51248;SDS011;39642;47.556;18.728;2022-10-16T05:22:33;10.65;;;4.05;;
51248;SDS011;39642;47.556;18.728;2022-10-16T05:24:58;11.30;;;3.95;;
51248;SDS011;39642;47.556;18.728;2022-10-16T05:27:24;10.48;;;4.03;;
51248;SDS011;39642;47.556;18.728;2022-10-16T05:29:50;10.90;;;4.15;;
51248;SDS011;39642;47.556;18.728;2022-10-16T05:32:17;10.27;;;4.10;;
51248;SDS011;39642;47.556;18.728;2022-10-16T05:34:44;10.80;;;4.10;;
51248;SDS011;39642;47.556;18.728;2022-10-16T05:37:10;10.70;;;4.10;;
51248;SDS011;39642;47.556;18.728;2022-10-16T05:39:37;11.43;;;4.18;;
51248;SDS011;39642;47.556;18.728;2022-10-16T05:42:04;11.43;;;3.80;;
51248;SDS011;39642;47.556;18.728;2022-10-16T05:44:30;11.20;;;4.22;;
51248;SDS011;39642;47.556;18.728;2022-10-16T05:46:56;10.15;;;3.80;;
51248;SDS011;39642;47.556;18.728;2022-10-16T05:49:22;10.63;;;4.22;;
51248;SDS011;39642;47.556;18.728;2022-10-16T05:51:48;9.93;;;3.83;;
51248;SDS011;39642;47.556;18.728;2022-10-16T05:54:14;9.00;;;3.53;;
51248;SDS011;39642;47.556;18.728;2022-10-16T05:56:40;9.95;;;3.78;;
51248;SDS011;39642;47.556;18.728;2022-10-16T05:59:06;10.10;;;3.80;;
51248;SDS011;39642;47.556;18.728;2022-10-16T06:01:32;10.15;;;3.80;;
51248;SDS011;39642;47.556;18.728;2022-10-16T06:03:58;11.35;;;3.78;;
51248;SDS011;39642;47.556;18.728;2022-10-16T06:06:25;11.05;;;3.90;;
51248;SDS011;39642;47.556;18.728;2022-10-16T06:08:52;9.63;;;3.90;;
51248;SDS011;39642;47.556;18.728;2022-10-16T06:11:24;9.65;;;3.87;;
51248;SDS011;39642;47.556;18.728;2022-10-16T06:13:52;11.00;;;3.87;;
51248;SDS011;39642;47.556;18.728;2022-10-16T06:16:20;10.57;;;3.97;;
51248;SDS011;39642;47.556;18.728;2022-10-16T06:18:46;9.82;;;4.00;;
51248;SDS011;39642;47.556;18.728;2022-10-16T06:21:14;10.48;;;3.87;;
51248;SDS011;39642;47.556;18.728;2022-10-16T06:23:42;9.88;;;3.90;;
51248;SDS011;39642;47.556;18.728;2022-10-16T06:26:10;11.02;;;3.87;;
51248;SDS011;39642;47.556;18.728;2022-10-16T06:28:37;10.35;;;4.10;;
51248;SDS011;39642;47.556;18.728;2022-10-16T06:31:04;9.77;;;3.72;;
51248;SDS011;39642;47.556;18.728;2022-10-16T06:33:31;9.38;;;3.58;;
51248;SDS011;39642;47.556;18.728;2022-10-16T06:36:00;9.73;;;4.03;;
51248;SDS011;39642;47.556;18.728;2022-10-16T06:38:28;10.00;;;3.87;;
51248;SDS011;39642;47.556;18.728;2022-10-16T06:40:55;9.10;;;3.60;;
51248;SDS011;39642;47.556;18.728;2022-10-16T06:43:21;11.02;;;3.83;;
51248;SDS011;39642;47.556;18.728;2022-10-16T06:45:53;9.45;;;3.70;;
51248;SDS011;39642;47.556;18.728;2022-10-16T06:48:20;10.20;;;4.20;;
51248;SDS011;39642;47.556;18.728;2022-10-16T06:50:56;10.85;;;3.70;;
51248;SDS011;39642;47.556;18.728;2022-10-16T06:53:27;10.88;;;4.03;;
51248;SDS011;39642;47.556;18.728;2022-10-16T06:55:54;10.57;;;4.15;;
51248;SDS011;39642;47.556;18.728;2022-10-16T06:58:20;10.07;;;3.70;;
51248;SDS011;39642;47.556;18.728;2022-10-16T07:00:46;11.30;;;3.85;;
51248;SDS011;39642;47.556;18.728;2022-10-16T07:03:12;9.75;;;3.67;;
51248;SDS011;39642;47.556;18.728;2022-10-16T07:05:39;11.50;;;4.10;;
51248;SDS011;39642;47.556;18.728;2022-10-16T07:08:08;9.45;;;3.92;;
51248;SDS011;39642;47.556;18.728;2022-10-16T07:10:34;10.60;;;4.15;;
51248;SDS011;39642;47.556;18.728;2022-10-16T07:13:00;10.95;;;4.05;;
51248;SDS011;39642;47.556;18.728;2022-10-16T07:15:27;11.77;;;4.70;;
51248;SDS011;39642;47.556;18.728;2022-10-16T07:17:53;11.50;;;4.20;;
51248;SDS011;39642;47.556;18.728;2022-10-16T07:20:19;10.57;;;3.85;;
51248;SDS011;39642;47.556;18.728;2022-10-16T07:22:45;12.13;;;4.50;;
51248;SDS011;39642;47.556;18.728;2022-10-16T07:25:11;11.05;;;3.90;;
51248;SDS011;39642;47.556;18.728;2022-10-16T07:27:37;14.20;;;4.97;;
51248;SDS011;39642;47.556;18.728;2022-10-16T07:30:04;12.88;;;4.60;;
51248;SDS011;39642;47.556;18.728;2022-10-16T07:32:31;14.40;;;4.72;;
51248;SDS011;39642;47.556;18.728;2022-10-16T07:34:57;11.77;;;4.57;;
51248;SDS011;39642;47.556;18.728;2022-10-16T07:37:23;17.98;;;5.10;;
51248;SDS011;39642;47.556;18.728;2022-10-16T07:39:49;12.10;;;4.87;;
51248;SDS011;39642;47.556;18.728;2022-10-16T07:42:15;16.10;;;4.35;;
51248;SDS011;39642;47.556;18.728;2022-10-16T07:44:41;16.23;;;4.62;;
51248;SDS011;39642;47.556;18.728;2022-10-16T07:47:07;11.32;;;4.45;;
51248;SDS011;39642;47.556;18.728;2022-10-16T07:49:33;13.60;;;4.07;;
51248;SDS011;39642;47.556;18.728;2022-10-16T07:51:59;15.57;;;4.97;;
51248;SDS011;39642;47.556;18.728;2022-10-16T07:54:25;18.25;;;4.40;;
51248;SDS011;39642;47.556;18.728;2022-10-16T07:56:50;15.43;;;4.53;;
51248;SDS011;39642;47.556;18.728;2022-10-16T07:59:16;12.30;;;4.57;;
51248;SDS011;39642;47.556;18.728;2022-10-16T08:01:42;14.65;;;4.85;;
51248;SDS011;39642;47.556;18.728;2022-10-16T08:04:08;13.65;;;4.47;;
51248;SDS011;39642;47.556;18.728;2022-10-16T08:06:39;14.70;;;4.68;;
51248;SDS011;39642;47.556;18.728;2022-10-16T08:09:06;12.85;;;4.20;;
51248;SDS011;39642;47.556;18.728;2022-10-16T08:11:33;13.73;;;4.47;;
51248;SDS011;39642;47.556;18.728;2022-10-16T08:13:59;15.20;;;4.72;;
51248;SDS011;39642;47.556;18.728;2022-10-16T08:16:24;12.75;;;4.62;;
51248;SDS011;39642;47.556;18.728;2022-10-16T08:18:50;11.98;;;4.60;;
51248;SDS011;39642;47.556;18.728;2022-10-16T08:21:17;13.02;;;4.47;;
51248;SDS011;39642;47.556;18.728;2022-10-16T08:23:45;15.88;;;4.70;;
51248;SDS011;39642;47.556;18.728;2022-10-16T08:26:11;14.18;;;4.18;;
51248;SDS011;39642;47.556;18.728;2022-10-16T08:28:38;12.73;;;4.25;;
51248;SDS011;39642;47.556;18.728;2022-10-16T08:31:05;12.27;;;4.20;;
51248;SDS011;39642;47.556;18.728;2022-10-16T08:33:39;10.98;;;4.30;;
51248;SDS011;39642;47.556;18.728;2022-10-16T08:36:06;14.32;;;4.62;;
51248;SDS011;39642;47.556;18.728;2022-10-16T08:38:33;13.85;;;4.25;;
51248;SDS011;39642;47.556;18.728;2022-10-16T08:41:46;11.70;;;4.57;;
51248;SDS011;39642;47.556;18.728;2022-10-16T08:44:00;13.38;;;4.30;;
51248;SDS011;39642;47.556;18.728;2022-10-16T08:49:14;12.90;;;4.20;;
51248;SDS011;39642;47.556;18.728;2022-10-16T08:51:40;12.18;;;4.43;;
51248;SDS011;39642;47.556;18.728;2022-10-16T08:54:15;13.93;;;4.57;;
51248;SDS011;39642;47.556;18.728;2022-10-16T08:56:47;12.60;;;4.25;;
51248;SDS011;39642;47.556;18.728;2022-10-16T08:59:13;11.75;;;4.40;;
51248;SDS011;39642;47.556;18.728;2022-10-16T09:01:44;14.73;;;4.70;;
51248;SDS011;39642;47.556;18.728;2022-10-16T09:06:56;12.88;;;4.30;;
51248;SDS011;39642;47.556;18.728;2022-10-16T09:12:28;11.65;;;4.32;;
51248;SDS011;39642;47.556;18.728;2022-10-16T09:15:07;13.27;;;4.20;;
51248;SDS011;39642;47.556;18.728;2022-10-16T09:17:48;11.73;;;4.20;;
51248;SDS011;39642;47.556;18.728;2022-10-16T09:23:10;12.15;;;4.20;;
51248;SDS011;39642;47.556;18.728;2022-10-16T09:25:47;11.68;;;4.43;;
51248;SDS011;39642;47.556;18.728;2022-10-16T09:28:15;12.07;;;4.28;;
51248;SDS011;39642;47.556;18.728;2022-10-16T09:30:43;13.20;;;4.40;;
51248;SDS011;39642;47.556;18.728;2022-10-16T09:33:10;10.65;;;4.25;;
51248;SDS011;39642;47.556;18.728;2022-10-16T09:35:42;12.63;;;4.30;;
51248;SDS011;39642;47.556;18.728;2022-10-16T09:38:19;15.18;;;4.53;;
51248;SDS011;39642;47.556;18.728;2022-10-16T09:40:49;12.95;;;4.28;;
51248;SDS011;39642;47.556;18.728;2022-10-16T09:43:23;13.05;;;4.22;;
51248;SDS011;39642;47.556;18.728;2022-10-16T09:46:06;11.98;;;4.90;;
51248;SDS011;39642;47.556;18.728;2022-10-16T09:48:43;11.95;;;4.18;;
51248;SDS011;39642;47.556;18.728;2022-10-16T09:51:16;12.93;;;3.97;;
51248;SDS011;39642;47.556;18.728;2022-10-16T09:53:45;12.50;;;4.43;;
51248;SDS011;39642;47.556;18.728;2022-10-16T09:56:21;13.07;;;4.10;;
51248;SDS011;39642;47.556;18.728;2022-10-16T09:58:52;11.50;;;4.30;;
51248;SDS011;39642;47.556;18.728;2022-10-16T10:01:19;11.05;;;4.10;;
51248;SDS011;39642;47.556;18.728;2022-10-16T10:03:46;13.32;;;4.30;;
51248;SDS011;39642;47.556;18.728;2022-10-16T10:06:33;13.55;;;4.85;;
51248;SDS011;39642;47.556;18.728;2022-10-16T10:09:04;12.00;;;4.05;;
51248;SDS011;39642;47.556;18.728;2022-10-16T10:14:19;13.43;;;4.05;;
51248;SDS011;39642;47.556;18.728;2022-10-16T10:16:46;12.88;;;4.30;;
51248;SDS011;39642;47.556;18.728;2022-10-16T10:19:16;10.73;;;4.20;;
51248;SDS011;39642;47.556;18.728;2022-10-16T10:21:44;10.27;;;3.92;;
51248;SDS011;39642;47.556;18.728;2022-10-16T10:24:11;13.57;;;4.57;;
51248;SDS011;39642;47.556;18.728;2022-10-16T10:26:38;11.40;;;4.18;;
51248;SDS011;39642;47.556;18.728;2022-10-16T10:37:27;11.00;;;4.15;;
51248;SDS011;39642;47.556;18.728;2022-10-16T10:50:54;12.30;;;4.30;;
51248;SDS011;39642;47.556;18.728;2022-10-16T10:53:45;14.63;;;4.37;;
51248;SDS011;39642;47.556;18.728;2022-10-16T10:56:23;19.67;;;4.82;;
51248;SDS011;39642;47.556;18.728;2022-10-16T11:04:34;11.98;;;4.28;;
51248;SDS011;39642;47.556;18.728;2022-10-16T11:07:28;12.98;;;4.15;;
51248;SDS011;39642;47.556;18.728;2022-10-16T11:10:12;10.98;;;4.60;;
51248;SDS011;39642;47.556;18.728;2022-10-16T11:12:42;10.85;;;4.32;;
51248;SDS011;39642;47.556;18.728;2022-10-16T11:17:42;11.73;;;4.47;;
51248;SDS011;39642;47.556;18.728;2022-10-16T11:22:59;12.25;;;4.37;;
51248;SDS011;39642;47.556;18.728;2022-10-16T11:25:33;11.35;;;4.50;;
51248;SDS011;39642;47.556;18.728;2022-10-16T11:33:37;10.18;;;4.25;;
51248;SDS011;39642;47.556;18.728;2022-10-16T11:36:25;10.80;;;4.20;;
51248;SDS011;39642;47.556;18.728;2022-10-16T11:39:00;11.55;;;4.53;;
51248;SDS011;39642;47.556;18.728;2022-10-16T11:41:35;11.02;;;4.43;;
51248;SDS011;39642;47.556;18.728;2022-10-16T11:47:42;12.40;;;4.70;;
51248;SDS011;39642;47.556;18.728;2022-10-16T11:55:44;10.35;;;4.45;;
51248;SDS011;39642;47.556;18.728;2022-10-16T12:08:59;11.27;;;4.18;;
51248;SDS011;39642;47.556;18.728;2022-10-16T12:11:37;11.93;;;4.53;;
51248;SDS011;39642;47.556;18.728;2022-10-16T12:16:37;9.88;;;3.97;;
51248;SDS011;39642;47.556;18.728;2022-10-16T12:21:37;11.25;;;4.20;;
51248;SDS011;39642;47.556;18.728;2022-10-16T12:24:03;11.12;;;4.32;;
51248;SDS011;39642;47.556;18.728;2022-10-16T12:26:39;13.07;;;4.53;;
51248;SDS011;39642;47.556;18.728;2022-10-16T12:29:17;10.25;;;4.18;;
51248;SDS011;39642;47.556;18.728;2022-10-16T12:31:53;12.00;;;4.40;;
51248;SDS011;39642;47.556;18.728;2022-10-16T12:34:21;12.63;;;4.22;;
51248;SDS011;39642;47.556;18.728;2022-10-16T12:37:13;10.88;;;4.78;;
51248;SDS011;39642;47.556;18.728;2022-10-16T12:39:59;11.38;;;4.28;;
51248;SDS011;39642;47.556;18.728;2022-10-16T12:42:38;11.88;;;4.15;;
51248;SDS011;39642;47.556;18.728;2022-10-16T12:47:53;11.93;;;4.45;;
51248;SDS011;39642;47.556;18.728;2022-10-16T12:52:48;11.98;;;4.15;;
51248;SDS011;39642;47.556;18.728;2022-10-16T12:55:18;11.88;;;4.50;;
51248;SDS011;39642;47.556;18.728;2022-10-16T13:03:19;11.70;;;4.35;;
51248;SDS011;39642;47.556;18.728;2022-10-16T13:06:25;11.73;;;4.37;;
51248;SDS011;39642;47.556;18.728;2022-10-16T13:28:08;14.10;;;4.43;;
51248;SDS011;39642;47.556;18.728;2022-10-16T13:30:40;11.48;;;4.82;;
51248;SDS011;39642;47.556;18.728;2022-10-16T13:36:02;10.05;;;4.15;;
51248;SDS011;39642;47.556;18.728;2022-10-16T13:38:33;11.02;;;4.75;;
51248;SDS011;39642;47.556;18.728;2022-10-16T13:41:04;10.30;;;4.25;;
51248;SDS011;39642;47.556;18.728;2022-10-16T13:43:39;10.65;;;4.00;;
51248;SDS011;39642;47.556;18.728;2022-10-16T13:46:12;11.60;;;4.28;;
51248;SDS011;39642;47.556;18.728;2022-10-16T13:48:40;12.88;;;4.20;;
51248;SDS011;39642;47.556;18.728;2022-10-16T13:51:14;11.50;;;3.95;;
51248;SDS011;39642;47.556;18.728;2022-10-16T13:53:42;13.30;;;4.35;;
51248;SDS011;39642;47.556;18.728;2022-10-16T13:56:16;11.77;;;4.45;;
51248;SDS011;39642;47.556;18.728;2022-10-16T13:58:45;10.77;;;4.05;;
51248;SDS011;39642;47.556;18.728;2022-10-16T14:01:46;11.10;;;4.47;;
51248;SDS011;39642;47.556;18.728;2022-10-16T14:04:09;11.63;;;4.53;;
51248;SDS011;39642;47.556;18.728;2022-10-16T14:06:40;12.73;;;4.30;;
51248;SDS011;39642;47.556;18.728;2022-10-16T14:09:21;11.25;;;4.22;;
51248;SDS011;39642;47.556;18.728;2022-10-16T14:11:57;11.77;;;4.70;;
51248;SDS011;39642;47.556;18.728;2022-10-16T14:14:34;11.23;;;4.40;;
51248;SDS011;39642;47.556;18.728;2022-10-16T14:17:05;10.45;;;4.37;;
51248;SDS011;39642;47.556;18.728;2022-10-16T14:19:31;11.12;;;4.32;;
51248;SDS011;39642;47.556;18.728;2022-10-16T14:21:58;11.57;;;4.68;;
51248;SDS011;39642;47.556;18.728;2022-10-16T14:24:30;12.07;;;4.47;;
51248;SDS011;39642;47.556;18.728;2022-10-16T14:26:59;10.48;;;4.55;;
51248;SDS011;39642;47.556;18.728;2022-10-16T14:29:26;10.63;;;4.60;;
51248;SDS011;39642;47.556;18.728;2022-10-16T14:32:00;11.70;;;4.43;;
51248;SDS011;39642;47.556;18.728;2022-10-16T14:34:31;11.07;;;4.47;;
51248;SDS011;39642;47.556;18.728;2022-10-16T14:37:08;10.43;;;4.53;;
51248;SDS011;39642;47.556;18.728;2022-10-16T14:39:42;10.27;;;4.25;;
51248;SDS011;39642;47.556;18.728;2022-10-16T14:42:14;11.25;;;4.43;;
51248;SDS011;39642;47.556;18.728;2022-10-16T14:44:44;10.80;;;4.40;;
51248;SDS011;39642;47.556;18.728;2022-10-16T14:47:15;11.07;;;4.40;;
51248;SDS011;39642;47.556;18.728;2022-10-16T14:49:47;10.40;;;4.15;;
51248;SDS011;39642;47.556;18.728;2022-10-16T14:52:14;11.55;;;4.57;;
51248;SDS011;39642;47.556;18.728;2022-10-16T14:54:40;10.80;;;4.40;;
51248;SDS011;39642;47.556;18.728;2022-10-16T14:57:15;11.88;;;4.37;;
51248;SDS011;39642;47.556;18.728;2022-10-16T14:59:43;11.38;;;4.47;;
51248;SDS011;39642;47.556;18.728;2022-10-16T15:02:30;11.43;;;4.45;;
51248;SDS011;39642;47.556;18.728;2022-10-16T15:04:58;11.02;;;4.60;;
51248;SDS011;39642;47.556;18.728;2022-10-16T15:07:36;10.38;;;4.35;;
51248;SDS011;39642;47.556;18.728;2022-10-16T15:10:02;10.50;;;4.45;;
51248;SDS011;39642;47.556;18.728;2022-10-16T15:12:28;11.75;;;4.37;;
51248;SDS011;39642;47.556;18.728;2022-10-16T15:14:54;10.98;;;3.95;;
51248;SDS011;39642;47.556;18.728;2022-10-16T15:17:20;10.55;;;4.25;;
51248;SDS011;39642;47.556;18.728;2022-10-16T15:19:46;11.68;;;4.20;;
51248;SDS011;39642;47.556;18.728;2022-10-16T15:22:12;12.07;;;4.55;;
51248;SDS011;39642;47.556;18.728;2022-10-16T15:24:38;10.85;;;4.50;;
51248;SDS011;39642;47.556;18.728;2022-10-16T15:27:04;10.57;;;4.32;;
51248;SDS011;39642;47.556;18.728;2022-10-16T15:29:29;10.57;;;4.07;;
51248;SDS011;39642;47.556;18.728;2022-10-16T15:31:56;10.15;;;4.18;;
51248;SDS011;39642;47.556;18.728;2022-10-16T15:34:22;11.52;;;4.00;;
51248;SDS011;39642;47.556;18.728;2022-10-16T15:36:48;10.98;;;4.10;;
51248;SDS011;39642;47.556;18.728;2022-10-16T15:39:18;9.98;;;3.85;;
51248;SDS011;39642;47.556;18.728;2022-10-16T15:41:46;12.77;;;4.53;;
51248;SDS011;39642;47.556;18.728;2022-10-16T15:44:16;11.88;;;4.20;;
51248;SDS011;39642;47.556;18.728;2022-10-16T15:46:43;13.35;;;4.20;;
51248;SDS011;39642;47.556;18.728;2022-10-16T15:49:09;13.00;;;4.40;;
51248;SDS011;39642;47.556;18.728;2022-10-16T15:51:40;10.18;;;4.12;;
51248;SDS011;39642;47.556;18.728;2022-10-16T15:54:07;11.20;;;4.07;;
51248;SDS011;39642;47.556;18.728;2022-10-16T15:56:34;10.73;;;3.80;;
51248;SDS011;39642;47.556;18.728;2022-10-16T15:59:02;10.25;;;4.20;;
51248;SDS011;39642;47.556;18.728;2022-10-16T16:01:28;10.32;;;4.18;;
51248;SDS011;39642;47.556;18.728;2022-10-16T16:03:58;11.02;;;4.55;;
51248;SDS011;39642;47.556;18.728;2022-10-16T16:06:24;10.50;;;4.30;;
51248;SDS011;39642;47.556;18.728;2022-10-16T16:08:50;10.88;;;4.18;;
51248;SDS011;39642;47.556;18.728;2022-10-16T16:11:17;11.60;;;4.50;;
51248;SDS011;39642;47.556;18.728;2022-10-16T16:13:45;11.12;;;4.05;;
51248;SDS011;39642;47.556;18.728;2022-10-16T16:16:12;11.38;;;4.55;;
51248;SDS011;39642;47.556;18.728;2022-10-16T16:18:40;10.95;;;4.32;;
51248;SDS011;39642;47.556;18.728;2022-10-16T16:21:07;10.70;;;4.10;;
51248;SDS011;39642;47.556;18.728;2022-10-16T16:23:35;12.30;;;4.30;;
51248;SDS011;39642;47.556;18.728;2022-10-16T16:26:04;10.65;;;4.18;;
51248;SDS011;39642;47.556;18.728;2022-10-16T16:28:52;11.98;;;4.45;;
51248;SDS011;39642;47.556;18.728;2022-10-16T16:31:19;9.75;;;4.00;;
51248;SDS011;39642;47.556;18.728;2022-10-16T16:33:48;9.75;;;3.72;;
51248;SDS011;39642;47.556;18.728;2022-10-16T16:36:16;10.35;;;3.53;;